sensor_id;sensor_type;location;lat;lon;timestamp;P1;durP1;ratioP1;P2;durP2;ratioP2
9974;SDS011;5028;50.974;4.968;2024-01-30T00:01:49;5.97;;;5.03;;
9974;SDS011;5028;50.974;4.968;2024-01-30T00:04:18;5.30;;;4.80;;
9974;SDS011;5028;50.974;4.968;2024-01-30T00:06:48;5.17;;;4.67;;
9974;SDS011;5028;50.974;4.968;2024-01-30T00:09:19;6.60;;;4.87;;
9974;SDS011;5028;50.974;4.968;2024-01-30T00:11:48;5.53;;;5.03;;
9974;SDS011;5028;50.974;4.968;2024-01-30T00:14:17;5.80;;;5.20;;
9974;SDS011;5028;50.974;4.968;2024-01-30T00:16:46;5.93;;;4.80;;
9974;SDS011;5028;50.974;4.968;2024-01-30T00:19:15;7.40;;;4.97;;
9974;SDS011;5028;50.974;4.968;2024-01-30T00:21:44;5.17;;;4.63;;
9974;SDS011;5028;50.974;4.968;2024-01-30T00:24:14;5.63;;;4.53;;
9974;SDS011;5028;50.974;4.968;2024-01-30T00:26:43;4.93;;;4.53;;
9974;SDS011;5028;50.974;4.968;2024-01-30T00:29:12;5.50;;;4.57;;
9974;SDS011;5028;50.974;4.968;2024-01-30T00:31:46;5.10;;;4.60;;
9974;SDS011;5028;50.974;4.968;2024-01-30T00:34:14;4.97;;;4.47;;
9974;SDS011;5028;50.974;4.968;2024-01-30T00:36:42;5.53;;;4.50;;
9974;SDS011;5028;50.974;4.968;2024-01-30T00:39:11;5.90;;;4.33;;
9974;SDS011;5028;50.974;4.968;2024-01-30T00:41:44;5.83;;;4.70;;
9974;SDS011;5028;50.974;4.968;2024-01-30T00:44:12;5.33;;;4.57;;
9974;SDS011;5028;50.974;4.968;2024-01-30T00:46:41;5.40;;;4.90;;
9974;SDS011;5028;50.974;4.968;2024-01-30T00:49:10;5.07;;;4.57;;
9974;SDS011;5028;50.974;4.968;2024-01-30T00:51:39;5.27;;;4.60;;
9974;SDS011;5028;50.974;4.968;2024-01-30T00:54:09;4.67;;;4.27;;
9974;SDS011;5028;50.974;4.968;2024-01-30T00:56:37;6.50;;;4.47;;
9974;SDS011;5028;50.974;4.968;2024-01-30T00:59:08;4.87;;;4.37;;
9974;SDS011;5028;50.974;4.968;2024-01-30T01:01:37;6.13;;;4.87;;
9974;SDS011;5028;50.974;4.968;2024-01-30T01:04:06;5.90;;;4.90;;
9974;SDS011;5028;50.974;4.968;2024-01-30T01:06:35;6.47;;;4.90;;
9974;SDS011;5028;50.974;4.968;2024-01-30T01:09:05;5.17;;;4.67;;
9974;SDS011;5028;50.974;4.968;2024-01-30T01:11:34;5.80;;;4.53;;
9974;SDS011;5028;50.974;4.968;2024-01-30T01:14:02;5.60;;;4.67;;
9974;SDS011;5028;50.974;4.968;2024-01-30T01:16:33;5.37;;;4.20;;
9974;SDS011;5028;50.974;4.968;2024-01-30T01:19:02;5.07;;;4.57;;
9974;SDS011;5028;50.974;4.968;2024-01-30T01:21:31;5.30;;;4.57;;
9974;SDS011;5028;50.974;4.968;2024-01-30T01:23:59;6.93;;;4.87;;
9974;SDS011;5028;50.974;4.968;2024-01-30T01:26:28;6.77;;;4.77;;
9974;SDS011;5028;50.974;4.968;2024-01-30T01:28:57;4.93;;;4.37;;
9974;SDS011;5028;50.974;4.968;2024-01-30T01:31:25;6.13;;;4.67;;
9974;SDS011;5028;50.974;4.968;2024-01-30T01:33:57;5.27;;;4.70;;
9974;SDS011;5028;50.974;4.968;2024-01-30T01:36:27;6.83;;;4.70;;
9974;SDS011;5028;50.974;4.968;2024-01-30T01:38:55;6.77;;;4.90;;
9974;SDS011;5028;50.974;4.968;2024-01-30T01:41:24;6.33;;;4.77;;
9974;SDS011;5028;50.974;4.968;2024-01-30T01:43:53;6.03;;;4.90;;
9974;SDS011;5028;50.974;4.968;2024-01-30T01:46:21;5.10;;;4.60;;
9974;SDS011;5028;50.974;4.968;2024-01-30T01:48:50;4.73;;;4.23;;
9974;SDS011;5028;50.974;4.968;2024-01-30T01:51:20;6.30;;;4.80;;
9974;SDS011;5028;50.974;4.968;2024-01-30T01:53:51;4.57;;;4.00;;
9974;SDS011;5028;50.974;4.968;2024-01-30T01:56:19;4.57;;;4.17;;
9974;SDS011;5028;50.974;4.968;2024-01-30T01:58:49;4.77;;;4.27;;
9974;SDS011;5028;50.974;4.968;2024-01-30T02:01:19;5.07;;;4.57;;
9974;SDS011;5028;50.974;4.968;2024-01-30T02:03:48;4.60;;;4.20;;
9974;SDS011;5028;50.974;4.968;2024-01-30T02:06:18;5.00;;;4.57;;
9974;SDS011;5028;50.974;4.968;2024-01-30T02:08:48;4.60;;;4.20;;
9974;SDS011;5028;50.974;4.968;2024-01-30T02:11:17;5.00;;;4.43;;
9974;SDS011;5028;50.974;4.968;2024-01-30T02:13:46;5.77;;;4.70;;
9974;SDS011;5028;50.974;4.968;2024-01-30T02:16:14;5.70;;;4.37;;
9974;SDS011;5028;50.974;4.968;2024-01-30T02:18:43;5.17;;;4.63;;
9974;SDS011;5028;50.974;4.968;2024-01-30T02:21:16;5.43;;;4.47;;
9974;SDS011;5028;50.974;4.968;2024-01-30T02:23:46;5.00;;;4.50;;
9974;SDS011;5028;50.974;4.968;2024-01-30T02:26:14;5.90;;;4.27;;
9974;SDS011;5028;50.974;4.968;2024-01-30T02:28:43;5.57;;;4.60;;
9974;SDS011;5028;50.974;4.968;2024-01-30T02:31:11;5.10;;;4.60;;
9974;SDS011;5028;50.974;4.968;2024-01-30T02:33:40;5.53;;;4.23;;
9974;SDS011;5028;50.974;4.968;2024-01-30T02:36:08;4.83;;;4.33;;
9974;SDS011;5028;50.974;4.968;2024-01-30T02:38:38;5.07;;;4.57;;
9974;SDS011;5028;50.974;4.968;2024-01-30T02:41:07;5.87;;;4.63;;
9974;SDS011;5028;50.974;4.968;2024-01-30T02:43:35;5.20;;;4.37;;
9974;SDS011;5028;50.974;4.968;2024-01-30T02:46:04;5.17;;;4.40;;
9974;SDS011;5028;50.974;4.968;2024-01-30T02:48:32;6.83;;;4.83;;
9974;SDS011;5028;50.974;4.968;2024-01-30T02:51:01;5.27;;;4.50;;
9974;SDS011;5028;50.974;4.968;2024-01-30T02:53:30;5.17;;;4.67;;
9974;SDS011;5028;50.974;4.968;2024-01-30T02:56:00;5.37;;;4.87;;
9974;SDS011;5028;50.974;4.968;2024-01-30T02:58:29;4.80;;;4.30;;
9974;SDS011;5028;50.974;4.968;2024-01-30T03:00:58;5.63;;;4.57;;
9974;SDS011;5028;50.974;4.968;2024-01-30T03:03:27;4.83;;;4.33;;
9974;SDS011;5028;50.974;4.968;2024-01-30T03:05:55;5.67;;;4.67;;
9974;SDS011;5028;50.974;4.968;2024-01-30T03:08:24;6.37;;;4.50;;
9974;SDS011;5028;50.974;4.968;2024-01-30T03:10:53;7.40;;;4.80;;
9974;SDS011;5028;50.974;4.968;2024-01-30T03:13:22;6.53;;;4.50;;
9974;SDS011;5028;50.974;4.968;2024-01-30T03:15:51;5.20;;;4.70;;
9974;SDS011;5028;50.974;4.968;2024-01-30T03:18:20;4.90;;;4.40;;
9974;SDS011;5028;50.974;4.968;2024-01-30T03:20:48;5.33;;;4.57;;
9974;SDS011;5028;50.974;4.968;2024-01-30T03:23:17;6.23;;;4.70;;
9974;SDS011;5028;50.974;4.968;2024-01-30T03:25:46;5.00;;;4.50;;
9974;SDS011;5028;50.974;4.968;2024-01-30T03:28:14;5.33;;;4.50;;
9974;SDS011;5028;50.974;4.968;2024-01-30T03:30:44;5.37;;;4.87;;
9974;SDS011;5028;50.974;4.968;2024-01-30T03:33:13;5.17;;;4.63;;
9974;SDS011;5028;50.974;4.968;2024-01-30T03:35:41;6.63;;;4.93;;
9974;SDS011;5028;50.974;4.968;2024-01-30T03:38:10;5.27;;;4.43;;
9974;SDS011;5028;50.974;4.968;2024-01-30T03:40:38;5.33;;;4.83;;
9974;SDS011;5028;50.974;4.968;2024-01-30T03:43:07;5.17;;;4.53;;
9974;SDS011;5028;50.974;4.968;2024-01-30T03:45:35;5.37;;;4.20;;
9974;SDS011;5028;50.974;4.968;2024-01-30T03:48:06;5.40;;;4.43;;
9974;SDS011;5028;50.974;4.968;2024-01-30T03:50:35;5.13;;;4.60;;
9974;SDS011;5028;50.974;4.968;2024-01-30T03:53:03;5.63;;;4.57;;
9974;SDS011;5028;50.974;4.968;2024-01-30T03:55:32;5.17;;;4.67;;
9974;SDS011;5028;50.974;4.968;2024-01-30T03:58:00;6.20;;;4.67;;
9974;SDS011;5028;50.974;4.968;2024-01-30T04:00:29;5.17;;;4.50;;
9974;SDS011;5028;50.974;4.968;2024-01-30T04:02:57;7.10;;;4.97;;
9974;SDS011;5028;50.974;4.968;2024-01-30T04:05:27;5.47;;;4.53;;
9974;SDS011;5028;50.974;4.968;2024-01-30T04:07:55;6.27;;;5.10;;
9974;SDS011;5028;50.974;4.968;2024-01-30T04:10:24;6.63;;;4.60;;
9974;SDS011;5028;50.974;4.968;2024-01-30T04:12:53;5.30;;;4.40;;
9974;SDS011;5028;50.974;4.968;2024-01-30T04:15:22;5.47;;;4.47;;
9974;SDS011;5028;50.974;4.968;2024-01-30T04:17:50;5.13;;;4.37;;
9974;SDS011;5028;50.974;4.968;2024-01-30T04:20:19;4.70;;;4.20;;
9974;SDS011;5028;50.974;4.968;2024-01-30T04:22:49;4.27;;;3.87;;
9974;SDS011;5028;50.974;4.968;2024-01-30T04:25:17;5.00;;;3.87;;
9974;SDS011;5028;50.974;4.968;2024-01-30T04:27:45;5.10;;;4.60;;
9974;SDS011;5028;50.974;4.968;2024-01-30T04:30:14;4.77;;;4.30;;
9974;SDS011;5028;50.974;4.968;2024-01-30T04:32:43;5.43;;;4.20;;
9974;SDS011;5028;50.974;4.968;2024-01-30T04:35:11;5.53;;;4.37;;
9974;SDS011;5028;50.974;4.968;2024-01-30T04:37:40;4.37;;;3.97;;
9974;SDS011;5028;50.974;4.968;2024-01-30T04:40:12;6.43;;;4.67;;
9974;SDS011;5028;50.974;4.968;2024-01-30T04:42:42;4.97;;;4.40;;
9974;SDS011;5028;50.974;4.968;2024-01-30T04:45:13;5.10;;;3.97;;
9974;SDS011;5028;50.974;4.968;2024-01-30T04:47:42;6.20;;;4.17;;
9974;SDS011;5028;50.974;4.968;2024-01-30T04:50:13;4.87;;;4.10;;
9974;SDS011;5028;50.974;4.968;2024-01-30T04:52:41;5.33;;;4.40;;
9974;SDS011;5028;50.974;4.968;2024-01-30T04:55:11;5.83;;;4.37;;
9974;SDS011;5028;50.974;4.968;2024-01-30T04:57:40;5.07;;;4.20;;
9974;SDS011;5028;50.974;4.968;2024-01-30T05:00:09;4.20;;;3.83;;
9974;SDS011;5028;50.974;4.968;2024-01-30T05:02:38;4.83;;;4.10;;
9974;SDS011;5028;50.974;4.968;2024-01-30T05:05:06;4.63;;;3.97;;
9974;SDS011;5028;50.974;4.968;2024-01-30T05:07:36;4.97;;;4.50;;
9974;SDS011;5028;50.974;4.968;2024-01-30T05:10:05;5.40;;;4.50;;
9974;SDS011;5028;50.974;4.968;2024-01-30T05:12:36;6.53;;;4.57;;
9974;SDS011;5028;50.974;4.968;2024-01-30T05:15:04;5.87;;;4.17;;
9974;SDS011;5028;50.974;4.968;2024-01-30T05:17:34;6.07;;;4.70;;
9974;SDS011;5028;50.974;4.968;2024-01-30T05:20:02;6.17;;;4.67;;
9974;SDS011;5028;50.974;4.968;2024-01-30T05:22:32;9.23;;;6.07;;
9974;SDS011;5028;50.974;4.968;2024-01-30T05:25:01;9.80;;;6.17;;
9974;SDS011;5028;50.974;4.968;2024-01-30T05:27:30;8.37;;;5.93;;
9974;SDS011;5028;50.974;4.968;2024-01-30T05:29:59;7.43;;;5.43;;
9974;SDS011;5028;50.974;4.968;2024-01-30T05:32:28;6.40;;;4.97;;
9974;SDS011;5028;50.974;4.968;2024-01-30T05:34:57;6.67;;;4.60;;
9974;SDS011;5028;50.974;4.968;2024-01-30T05:37:25;5.17;;;4.30;;
9974;SDS011;5028;50.974;4.968;2024-01-30T05:39:54;6.07;;;4.07;;
9974;SDS011;5028;50.974;4.968;2024-01-30T05:42:23;4.37;;;3.80;;
9974;SDS011;5028;50.974;4.968;2024-01-30T05:44:51;4.67;;;4.03;;
9974;SDS011;5028;50.974;4.968;2024-01-30T05:47:21;5.37;;;4.10;;
9974;SDS011;5028;50.974;4.968;2024-01-30T05:49:50;5.77;;;4.00;;
9974;SDS011;5028;50.974;4.968;2024-01-30T05:52:18;4.67;;;3.97;;
9974;SDS011;5028;50.974;4.968;2024-01-30T05:54:47;6.03;;;4.40;;
9974;SDS011;5028;50.974;4.968;2024-01-30T05:57:15;4.67;;;4.17;;
9974;SDS011;5028;50.974;4.968;2024-01-30T05:59:44;6.33;;;4.13;;
9974;SDS011;5028;50.974;4.968;2024-01-30T06:02:14;7.83;;;4.07;;
9974;SDS011;5028;50.974;4.968;2024-01-30T06:04:44;4.03;;;3.60;;
9974;SDS011;5028;50.974;4.968;2024-01-30T06:07:13;4.60;;;3.90;;
9974;SDS011;5028;50.974;4.968;2024-01-30T06:09:41;4.60;;;4.10;;
9974;SDS011;5028;50.974;4.968;2024-01-30T06:12:11;3.83;;;3.40;;
9974;SDS011;5028;50.974;4.968;2024-01-30T06:14:39;5.00;;;3.87;;
9974;SDS011;5028;50.974;4.968;2024-01-30T06:17:12;6.37;;;3.87;;
9974;SDS011;5028;50.974;4.968;2024-01-30T06:19:41;4.30;;;3.90;;
9974;SDS011;5028;50.974;4.968;2024-01-30T06:22:13;5.23;;;4.10;;
9974;SDS011;5028;50.974;4.968;2024-01-30T06:24:42;5.30;;;3.90;;
9974;SDS011;5028;50.974;4.968;2024-01-30T06:27:11;4.53;;;3.70;;
9974;SDS011;5028;50.974;4.968;2024-01-30T06:29:40;4.97;;;3.83;;
9974;SDS011;5028;50.974;4.968;2024-01-30T06:32:19;5.97;;;4.20;;
9974;SDS011;5028;50.974;4.968;2024-01-30T06:34:47;4.90;;;3.77;;
9974;SDS011;5028;50.974;4.968;2024-01-30T06:37:18;4.87;;;3.90;;
9974;SDS011;5028;50.974;4.968;2024-01-30T06:39:46;4.23;;;3.83;;
9974;SDS011;5028;50.974;4.968;2024-01-30T06:42:15;5.97;;;4.30;;
9974;SDS011;5028;50.974;4.968;2024-01-30T06:44:43;4.33;;;3.80;;
9974;SDS011;5028;50.974;4.968;2024-01-30T06:47:11;5.23;;;3.90;;
9974;SDS011;5028;50.974;4.968;2024-01-30T06:49:40;6.00;;;3.90;;
9974;SDS011;5028;50.974;4.968;2024-01-30T06:52:10;5.93;;;4.43;;
9974;SDS011;5028;50.974;4.968;2024-01-30T06:54:41;6.80;;;4.43;;
9974;SDS011;5028;50.974;4.968;2024-01-30T06:57:09;4.77;;;4.37;;
9974;SDS011;5028;50.974;4.968;2024-01-30T06:59:40;4.80;;;4.30;;
9974;SDS011;5028;50.974;4.968;2024-01-30T07:02:10;5.03;;;4.30;;
9974;SDS011;5028;50.974;4.968;2024-01-30T07:04:39;6.70;;;4.73;;
9974;SDS011;5028;50.974;4.968;2024-01-30T07:07:12;4.40;;;4.00;;
9974;SDS011;5028;50.974;4.968;2024-01-30T07:09:43;6.03;;;4.37;;
9974;SDS011;5028;50.974;4.968;2024-01-30T07:12:14;6.50;;;4.40;;
9974;SDS011;5028;50.974;4.968;2024-01-30T07:14:42;8.43;;;5.10;;
9974;SDS011;5028;50.974;4.968;2024-01-30T07:17:11;5.70;;;4.93;;
9974;SDS011;5028;50.974;4.968;2024-01-30T07:19:40;5.83;;;4.57;;
9974;SDS011;5028;50.974;4.968;2024-01-30T07:22:09;6.43;;;4.90;;
9974;SDS011;5028;50.974;4.968;2024-01-30T07:24:41;5.10;;;4.60;;
9974;SDS011;5028;50.974;4.968;2024-01-30T07:27:14;7.83;;;6.03;;
9974;SDS011;5028;50.974;4.968;2024-01-30T07:29:44;6.43;;;5.63;;
9974;SDS011;5028;50.974;4.968;2024-01-30T07:32:13;8.43;;;5.27;;
9974;SDS011;5028;50.974;4.968;2024-01-30T07:34:41;6.37;;;4.67;;
9974;SDS011;5028;50.974;4.968;2024-01-30T07:37:28;6.80;;;5.13;;
9974;SDS011;5028;50.974;4.968;2024-01-30T07:39:58;6.03;;;4.87;;
9974;SDS011;5028;50.974;4.968;2024-01-30T07:42:27;6.30;;;5.20;;
9974;SDS011;5028;50.974;4.968;2024-01-30T07:44:56;7.50;;;5.10;;
9974;SDS011;5028;50.974;4.968;2024-01-30T07:47:24;5.47;;;4.50;;
9974;SDS011;5028;50.974;4.968;2024-01-30T07:49:53;5.17;;;4.50;;
9974;SDS011;5028;50.974;4.968;2024-01-30T07:52:22;5.13;;;4.67;;
9974;SDS011;5028;50.974;4.968;2024-01-30T07:54:51;5.33;;;4.63;;
9974;SDS011;5028;50.974;4.968;2024-01-30T07:57:21;6.13;;;4.77;;
9974;SDS011;5028;50.974;4.968;2024-01-30T07:59:49;6.73;;;4.50;;
9974;SDS011;5028;50.974;4.968;2024-01-30T08:02:18;5.37;;;4.87;;
9974;SDS011;5028;50.974;4.968;2024-01-30T08:04:50;5.83;;;4.80;;
9974;SDS011;5028;50.974;4.968;2024-01-30T08:07:19;6.67;;;5.13;;
9974;SDS011;5028;50.974;4.968;2024-01-30T08:09:49;6.93;;;5.10;;
9974;SDS011;5028;50.974;4.968;2024-01-30T08:12:18;4.83;;;4.43;;
9974;SDS011;5028;50.974;4.968;2024-01-30T08:14:48;5.73;;;4.43;;
9974;SDS011;5028;50.974;4.968;2024-01-30T08:17:16;6.00;;;4.83;;
9974;SDS011;5028;50.974;4.968;2024-01-30T08:19:45;7.63;;;5.20;;
9974;SDS011;5028;50.974;4.968;2024-01-30T08:22:14;5.70;;;4.73;;
9974;SDS011;5028;50.974;4.968;2024-01-30T08:24:42;10.17;;;4.60;;
9974;SDS011;5028;50.974;4.968;2024-01-30T08:27:11;5.50;;;4.53;;
9974;SDS011;5028;50.974;4.968;2024-01-30T08:29:40;6.47;;;4.87;;
9974;SDS011;5028;50.974;4.968;2024-01-30T08:32:11;5.50;;;4.30;;
9974;SDS011;5028;50.974;4.968;2024-01-30T08:34:39;6.57;;;4.20;;
9974;SDS011;5028;50.974;4.968;2024-01-30T08:37:08;6.10;;;4.70;;
9974;SDS011;5028;50.974;4.968;2024-01-30T08:39:37;6.93;;;4.73;;
9974;SDS011;5028;50.974;4.968;2024-01-30T08:42:06;8.47;;;5.37;;
9974;SDS011;5028;50.974;4.968;2024-01-30T08:44:36;6.33;;;4.97;;
9974;SDS011;5028;50.974;4.968;2024-01-30T08:47:05;6.13;;;4.93;;
9974;SDS011;5028;50.974;4.968;2024-01-30T08:49:35;7.70;;;4.70;;
9974;SDS011;5028;50.974;4.968;2024-01-30T08:57:31;5.80;;;4.57;;
9974;SDS011;5028;50.974;4.968;2024-01-30T09:00:00;5.93;;;4.73;;
9974;SDS011;5028;50.974;4.968;2024-01-30T09:02:33;6.33;;;4.70;;
9974;SDS011;5028;50.974;4.968;2024-01-30T09:05:03;7.13;;;5.13;;
9974;SDS011;5028;50.974;4.968;2024-01-30T09:07:32;7.17;;;4.80;;
9974;SDS011;5028;50.974;4.968;2024-01-30T09:10:01;7.27;;;5.60;;
9974;SDS011;5028;50.974;4.968;2024-01-30T09:12:30;8.33;;;5.30;;
9974;SDS011;5028;50.974;4.968;2024-01-30T09:14:58;7.43;;;5.10;;
9974;SDS011;5028;50.974;4.968;2024-01-30T09:17:27;7.27;;;4.90;;
9974;SDS011;5028;50.974;4.968;2024-01-30T09:19:56;6.70;;;5.30;;
9974;SDS011;5028;50.974;4.968;2024-01-30T09:22:26;5.50;;;4.60;;
9974;SDS011;5028;50.974;4.968;2024-01-30T09:24:55;7.47;;;4.57;;
9974;SDS011;5028;50.974;4.968;2024-01-30T09:27:24;7.23;;;4.77;;
9974;SDS011;5028;50.974;4.968;2024-01-30T09:29:52;6.37;;;4.43;;
9974;SDS011;5028;50.974;4.968;2024-01-30T09:32:21;6.83;;;4.50;;
9974;SDS011;5028;50.974;4.968;2024-01-30T09:34:50;8.13;;;4.77;;
9974;SDS011;5028;50.974;4.968;2024-01-30T09:37:20;8.03;;;4.70;;
9974;SDS011;5028;50.974;4.968;2024-01-30T09:39:54;5.53;;;4.57;;
9974;SDS011;5028;50.974;4.968;2024-01-30T09:42:26;6.57;;;4.60;;
9974;SDS011;5028;50.974;4.968;2024-01-30T09:44:59;7.83;;;5.10;;
9974;SDS011;5028;50.974;4.968;2024-01-30T09:47:27;5.97;;;4.30;;
9974;SDS011;5028;50.974;4.968;2024-01-30T09:49:58;7.93;;;4.53;;
9974;SDS011;5028;50.974;4.968;2024-01-30T09:52:27;7.27;;;4.60;;
9974;SDS011;5028;50.974;4.968;2024-01-30T09:54:57;8.07;;;4.97;;
9974;SDS011;5028;50.974;4.968;2024-01-30T09:57:28;6.13;;;4.40;;
9974;SDS011;5028;50.974;4.968;2024-01-30T09:59:56;7.87;;;4.63;;
9974;SDS011;5028;50.974;4.968;2024-01-30T10:02:26;6.83;;;4.60;;
9974;SDS011;5028;50.974;4.968;2024-01-30T10:04:54;8.00;;;5.00;;
9974;SDS011;5028;50.974;4.968;2024-01-30T10:07:23;7.43;;;4.53;;
9974;SDS011;5028;50.974;4.968;2024-01-30T10:09:52;7.17;;;4.60;;
9974;SDS011;5028;50.974;4.968;2024-01-30T10:12:25;8.03;;;5.03;;
9974;SDS011;5028;50.974;4.968;2024-01-30T10:14:55;11.53;;;5.50;;
9974;SDS011;5028;50.974;4.968;2024-01-30T10:17:25;7.13;;;4.80;;
9974;SDS011;5028;50.974;4.968;2024-01-30T10:19:59;6.40;;;4.73;;
9974;SDS011;5028;50.974;4.968;2024-01-30T10:22:32;8.80;;;6.17;;
9974;SDS011;5028;50.974;4.968;2024-01-30T10:25:01;8.50;;;6.13;;
9974;SDS011;5028;50.974;4.968;2024-01-30T10:27:33;8.30;;;5.07;;
9974;SDS011;5028;50.974;4.968;2024-01-30T10:30:02;9.53;;;6.10;;
9974;SDS011;5028;50.974;4.968;2024-01-30T10:32:31;7.37;;;5.00;;
9974;SDS011;5028;50.974;4.968;2024-01-30T10:35:02;7.53;;;5.43;;
9974;SDS011;5028;50.974;4.968;2024-01-30T10:37:32;6.27;;;5.20;;
9974;SDS011;5028;50.974;4.968;2024-01-30T10:40:03;10.13;;;4.87;;
9974;SDS011;5028;50.974;4.968;2024-01-30T10:42:35;6.97;;;5.43;;
9974;SDS011;5028;50.974;4.968;2024-01-30T10:45:06;6.80;;;5.00;;
9974;SDS011;5028;50.974;4.968;2024-01-30T10:47:36;7.37;;;5.17;;
9974;SDS011;5028;50.974;4.968;2024-01-30T10:50:05;9.73;;;5.33;;
9974;SDS011;5028;50.974;4.968;2024-01-30T10:52:35;7.20;;;4.97;;
9974;SDS011;5028;50.974;4.968;2024-01-30T10:55:04;8.87;;;5.00;;
9974;SDS011;5028;50.974;4.968;2024-01-30T10:57:35;10.10;;;5.13;;
9974;SDS011;5028;50.974;4.968;2024-01-30T11:00:06;9.23;;;5.60;;
9974;SDS011;5028;50.974;4.968;2024-01-30T11:02:38;7.97;;;5.90;;
9974;SDS011;5028;50.974;4.968;2024-01-30T11:05:08;7.37;;;5.33;;
9974;SDS011;5028;50.974;4.968;2024-01-30T11:07:38;8.23;;;5.67;;
9974;SDS011;5028;50.974;4.968;2024-01-30T11:10:08;6.87;;;4.87;;
9974;SDS011;5028;50.974;4.968;2024-01-30T11:12:41;8.33;;;5.60;;
9974;SDS011;5028;50.974;4.968;2024-01-30T11:15:14;8.93;;;5.47;;
9974;SDS011;5028;50.974;4.968;2024-01-30T11:17:42;11.83;;;6.00;;
9974;SDS011;5028;50.974;4.968;2024-01-30T11:20:14;8.47;;;5.60;;
9974;SDS011;5028;50.974;4.968;2024-01-30T11:22:44;6.83;;;5.77;;
9974;SDS011;5028;50.974;4.968;2024-01-30T11:25:14;8.80;;;5.70;;
9974;SDS011;5028;50.974;4.968;2024-01-30T11:27:46;7.07;;;5.80;;
9974;SDS011;5028;50.974;4.968;2024-01-30T11:30:23;9.47;;;5.70;;
9974;SDS011;5028;50.974;4.968;2024-01-30T11:32:59;7.57;;;5.60;;
9974;SDS011;5028;50.974;4.968;2024-01-30T11:35:30;8.97;;;5.77;;
9974;SDS011;5028;50.974;4.968;2024-01-30T11:38:04;8.43;;;5.17;;
9974;SDS011;5028;50.974;4.968;2024-01-30T11:40:37;10.80;;;5.07;;
9974;SDS011;5028;50.974;4.968;2024-01-30T11:43:11;7.10;;;4.80;;
9974;SDS011;5028;50.974;4.968;2024-01-30T11:45:42;8.50;;;5.07;;
9974;SDS011;5028;50.974;4.968;2024-01-30T11:48:12;10.10;;;5.27;;
9974;SDS011;5028;50.974;4.968;2024-01-30T11:50:41;8.37;;;4.70;;
9974;SDS011;5028;50.974;4.968;2024-01-30T11:53:11;5.90;;;4.33;;
9974;SDS011;5028;50.974;4.968;2024-01-30T11:55:39;8.67;;;4.30;;
9974;SDS011;5028;50.974;4.968;2024-01-30T11:58:08;6.23;;;3.80;;
9974;SDS011;5028;50.974;4.968;2024-01-30T12:00:38;5.37;;;3.57;;
9974;SDS011;5028;50.974;4.968;2024-01-30T12:03:06;6.07;;;3.50;;
9974;SDS011;5028;50.974;4.968;2024-01-30T12:05:40;6.07;;;3.93;;
9974;SDS011;5028;50.974;4.968;2024-01-30T12:08:14;6.37;;;3.30;;
9974;SDS011;5028;50.974;4.968;2024-01-30T12:10:43;6.30;;;3.33;;
9974;SDS011;5028;50.974;4.968;2024-01-30T12:13:11;5.33;;;3.10;;
9974;SDS011;5028;50.974;4.968;2024-01-30T12:15:43;9.37;;;3.67;;
9974;SDS011;5028;50.974;4.968;2024-01-30T12:18:12;7.23;;;3.40;;
9974;SDS011;5028;50.974;4.968;2024-01-30T12:20:41;6.60;;;2.97;;
9974;SDS011;5028;50.974;4.968;2024-01-30T12:23:11;5.40;;;3.13;;
9974;SDS011;5028;50.974;4.968;2024-01-30T12:25:40;4.93;;;2.43;;
9974;SDS011;5028;50.974;4.968;2024-01-30T12:28:09;7.10;;;2.47;;
9974;SDS011;5028;50.974;4.968;2024-01-30T12:30:39;4.43;;;2.47;;
9974;SDS011;5028;50.974;4.968;2024-01-30T12:33:10;5.57;;;2.40;;
9974;SDS011;5028;50.974;4.968;2024-01-30T12:35:47;5.03;;;2.43;;
9974;SDS011;5028;50.974;4.968;2024-01-30T12:38:28;3.13;;;1.70;;
9974;SDS011;5028;50.974;4.968;2024-01-30T12:40:56;2.57;;;1.57;;
9974;SDS011;5028;50.974;4.968;2024-01-30T12:43:25;2.97;;;1.20;;
9974;SDS011;5028;50.974;4.968;2024-01-30T12:46:04;4.73;;;1.63;;
9974;SDS011;5028;50.974;4.968;2024-01-30T12:48:34;1.70;;;1.20;;
9974;SDS011;5028;50.974;4.968;2024-01-30T12:51:03;4.13;;;1.33;;
9974;SDS011;5028;50.974;4.968;2024-01-30T12:53:32;2.23;;;1.17;;
9974;SDS011;5028;50.974;4.968;2024-01-30T12:56:00;2.47;;;1.00;;
9974;SDS011;5028;50.974;4.968;2024-01-30T12:58:29;2.17;;;1.20;;
9974;SDS011;5028;50.974;4.968;2024-01-30T13:00:57;2.30;;;0.80;;
9974;SDS011;5028;50.974;4.968;2024-01-30T13:03:26;3.03;;;1.00;;
9974;SDS011;5028;50.974;4.968;2024-01-30T13:05:57;1.33;;;0.70;;
9974;SDS011;5028;50.974;4.968;2024-01-30T13:08:25;1.63;;;1.00;;
9974;SDS011;5028;50.974;4.968;2024-01-30T13:10:55;3.17;;;1.17;;
9974;SDS011;5028;50.974;4.968;2024-01-30T13:13:24;2.60;;;1.00;;
9974;SDS011;5028;50.974;4.968;2024-01-30T13:15:53;1.23;;;0.80;;
9974;SDS011;5028;50.974;4.968;2024-01-30T13:18:21;3.43;;;0.90;;
9974;SDS011;5028;50.974;4.968;2024-01-30T13:20:50;1.73;;;0.87;;
9974;SDS011;5028;50.974;4.968;2024-01-30T13:23:20;3.47;;;1.20;;
9974;SDS011;5028;50.974;4.968;2024-01-30T13:25:49;2.33;;;0.80;;
9974;SDS011;5028;50.974;4.968;2024-01-30T13:28:17;2.57;;;1.07;;
9974;SDS011;5028;50.974;4.968;2024-01-30T13:30:46;1.77;;;0.80;;
9974;SDS011;5028;50.974;4.968;2024-01-30T13:33:14;3.67;;;1.03;;
9974;SDS011;5028;50.974;4.968;2024-01-30T13:35:43;3.43;;;0.90;;
9974;SDS011;5028;50.974;4.968;2024-01-30T13:38:11;1.90;;;0.80;;
9974;SDS011;5028;50.974;4.968;2024-01-30T13:40:42;1.80;;;1.00;;
9974;SDS011;5028;50.974;4.968;2024-01-30T13:43:11;1.07;;;0.67;;
9974;SDS011;5028;50.974;4.968;2024-01-30T13:45:40;2.43;;;0.90;;
9974;SDS011;5028;50.974;4.968;2024-01-30T13:48:09;3.63;;;1.03;;
9974;SDS011;5028;50.974;4.968;2024-01-30T13:50:38;2.70;;;1.00;;
9974;SDS011;5028;50.974;4.968;2024-01-30T13:53:07;1.57;;;0.90;;
9974;SDS011;5028;50.974;4.968;2024-01-30T13:55:36;3.10;;;1.10;;
9974;SDS011;5028;50.974;4.968;2024-01-30T13:58:06;2.73;;;1.30;;
9974;SDS011;5028;50.974;4.968;2024-01-30T14:00:35;2.63;;;1.13;;
9974;SDS011;5028;50.974;4.968;2024-01-30T14:03:04;6.10;;;1.50;;
9974;SDS011;5028;50.974;4.968;2024-01-30T14:05:33;4.53;;;1.10;;
9974;SDS011;5028;50.974;4.968;2024-01-30T14:08:02;2.77;;;1.27;;
9974;SDS011;5028;50.974;4.968;2024-01-30T14:10:32;3.60;;;1.30;;
9974;SDS011;5028;50.974;4.968;2024-01-30T14:13:01;2.90;;;1.17;;
9974;SDS011;5028;50.974;4.968;2024-01-30T14:15:30;3.80;;;1.10;;
9974;SDS011;5028;50.974;4.968;2024-01-30T14:17:59;3.23;;;1.00;;
9974;SDS011;5028;50.974;4.968;2024-01-30T14:20:28;3.80;;;1.13;;
9974;SDS011;5028;50.974;4.968;2024-01-30T14:22:57;2.23;;;1.17;;
9974;SDS011;5028;50.974;4.968;2024-01-30T14:25:26;4.67;;;1.20;;
9974;SDS011;5028;50.974;4.968;2024-01-30T14:27:54;2.43;;;1.20;;
9974;SDS011;5028;50.974;4.968;2024-01-30T14:30:23;7.27;;;1.47;;
9974;SDS011;5028;50.974;4.968;2024-01-30T14:32:53;4.27;;;1.30;;
9974;SDS011;5028;50.974;4.968;2024-01-30T14:35:22;3.10;;;1.10;;
9974;SDS011;5028;50.974;4.968;2024-01-30T14:37:51;3.13;;;1.30;;
9974;SDS011;5028;50.974;4.968;2024-01-30T14:40:19;4.07;;;1.20;;
9974;SDS011;5028;50.974;4.968;2024-01-30T14:42:48;3.97;;;1.17;;
9974;SDS011;5028;50.974;4.968;2024-01-30T14:45:17;4.43;;;1.47;;
9974;SDS011;5028;50.974;4.968;2024-01-30T14:47:46;3.87;;;1.30;;
9974;SDS011;5028;50.974;4.968;2024-01-30T14:50:16;3.50;;;1.10;;
9974;SDS011;5028;50.974;4.968;2024-01-30T14:52:44;3.90;;;1.40;;
9974;SDS011;5028;50.974;4.968;2024-01-30T14:55:13;2.93;;;1.33;;
9974;SDS011;5028;50.974;4.968;2024-01-30T14:57:41;2.37;;;1.10;;
9974;SDS011;5028;50.974;4.968;2024-01-30T15:00:12;2.23;;;1.20;;
9974;SDS011;5028;50.974;4.968;2024-01-30T15:02:43;2.80;;;1.20;;
9974;SDS011;5028;50.974;4.968;2024-01-30T15:05:13;2.27;;;1.10;;
9974;SDS011;5028;50.974;4.968;2024-01-30T15:07:45;3.30;;;1.40;;
9974;SDS011;5028;50.974;4.968;2024-01-30T15:10:13;2.47;;;1.00;;
9974;SDS011;5028;50.974;4.968;2024-01-30T15:12:42;2.37;;;1.13;;
9974;SDS011;5028;50.974;4.968;2024-01-30T15:15:10;2.73;;;1.10;;
9974;SDS011;5028;50.974;4.968;2024-01-30T15:17:39;5.23;;;1.40;;
9974;SDS011;5028;50.974;4.968;2024-01-30T15:20:08;2.93;;;1.30;;
9974;SDS011;5028;50.974;4.968;2024-01-30T15:22:37;3.33;;;1.20;;
9974;SDS011;5028;50.974;4.968;2024-01-30T15:25:08;3.03;;;1.00;;
9974;SDS011;5028;50.974;4.968;2024-01-30T15:27:37;2.63;;;1.20;;
9974;SDS011;5028;50.974;4.968;2024-01-30T15:30:06;6.00;;;2.50;;
9974;SDS011;5028;50.974;4.968;2024-01-30T15:32:35;7.17;;;2.90;;
9974;SDS011;5028;50.974;4.968;2024-01-30T15:35:04;4.47;;;1.70;;